createdAt,value
2019-03-01T00:01:21.576Z,99.90
2019-03-01T00:04:08.676Z,99.90
2019-03-01T00:07:10.621Z,99.90
2019-03-01T00:09:54.954Z,99.90
2019-03-01T00:12:57.002Z,99.90
2019-03-01T00:16:05.030Z,99.90
2019-03-01T00:18:59.754Z,99.90
2019-03-01T00:22:16.986Z,99.90
2019-03-01T00:25:32.283Z,99.90
2019-03-01T00:28:43.191Z,99.90
2019-03-01T00:31:34.546Z,99.90
2019-03-01T00:34:55.009Z,99.90
2019-03-01T00:38:05.744Z,99.90
2019-03-01T00:41:21.640Z,99.90
2019-03-01T00:44:20.718Z,99.90
2019-03-01T00:46:51.956Z,99.90
2019-03-01T00:49:24.260Z,99.90
2019-03-01T00:51:55.507Z,99.90
2019-03-01T00:54:26.773Z,99.90
2019-03-01T00:56:58.048Z,99.90
2019-03-01T00:59:29.232Z,99.90
2019-03-01T01:02:00.245Z,99.90
2019-03-01T01:04:31.651Z,99.90
2019-03-01T01:07:02.739Z,99.90
2019-03-01T01:09:34.709Z,99.90
2019-03-01T01:12:06.744Z,99.90
2019-03-01T01:14:38.981Z,99.90
2019-03-01T01:17:11.299Z,99.90
2019-03-01T01:19:43.268Z,99.90
2019-03-01T01:22:14.449Z,99.90
2019-03-01T01:24:45.362Z,99.90
2019-03-01T01:27:16.399Z,99.90
2019-03-01T01:29:47.450Z,99.90
2019-03-01T01:32:18.592Z,99.90
2019-03-01T01:34:49.736Z,99.90
2019-03-01T01:37:21.184Z,99.90
2019-03-01T01:39:51.868Z,99.90
2019-03-01T01:42:22.922Z,99.90
2019-03-01T01:44:53.967Z,99.90
2019-03-01T01:47:25.092Z,99.90
2019-03-01T01:49:56.880Z,99.90
2019-03-01T01:52:28.017Z,99.90
2019-03-01T01:54:59.031Z,99.90
2019-03-01T01:57:30.126Z,99.90
2019-03-01T02:00:01.273Z,99.90
2019-03-01T02:02:32.572Z,99.90
2019-03-01T02:05:04.322Z,99.90
2019-03-01T02:07:35.988Z,99.90
2019-03-01T02:10:07.998Z,99.90
2019-03-01T02:12:39.224Z,99.90
2019-03-01T02:15:16.733Z,99.90
2019-03-01T02:17:47.469Z,99.90
2019-03-01T02:20:18.653Z,99.90
2019-03-01T02:22:49.297Z,99.90
2019-03-01T02:25:20.617Z,99.90
2019-03-01T02:27:51.820Z,99.90
2019-03-01T02:30:24.831Z,99.90
2019-03-01T02:32:55.927Z,99.90
2019-03-01T02:35:28.000Z,99.90
2019-03-01T02:37:58.963Z,99.90
2019-03-01T02:40:30.176Z,99.90
2019-03-01T02:43:01.218Z,99.90
2019-03-01T02:45:32.850Z,99.90
2019-03-01T02:48:03.889Z,99.90
2019-03-01T02:50:35.097Z,99.90
2019-03-01T02:53:06.490Z,99.90
2019-03-01T02:55:38.753Z,99.90
2019-03-01T02:58:09.795Z,99.90
2019-03-01T03:00:41.437Z,99.90
2019-03-01T03:03:12.460Z,99.90
2019-03-01T03:06:02.479Z,99.90
2019-03-01T03:08:33.967Z,99.90
2019-03-01T03:11:05.476Z,99.90
2019-03-01T03:13:36.580Z,99.90
2019-03-01T03:16:07.870Z,99.90
2019-03-01T03:18:39.482Z,99.90
2019-03-01T03:21:10.709Z,99.90
2019-03-01T03:23:41.897Z,99.90
2019-03-01T03:26:13.045Z,99.90
2019-03-01T03:28:44.143Z,99.90
2019-03-01T03:31:15.475Z,99.90
2019-03-01T03:33:46.208Z,99.90
2019-03-01T03:36:17.272Z,99.90
2019-03-01T03:38:47.834Z,99.90
2019-03-01T03:41:19.050Z,99.90
2019-03-01T03:43:49.986Z,99.90
2019-03-01T03:46:20.952Z,99.90
2019-03-01T03:48:51.943Z,99.90
2019-03-01T03:51:23.042Z,99.90
2019-03-01T03:53:54.078Z,99.90
2019-03-01T03:56:25.227Z,99.90
2019-03-01T03:58:56.204Z,99.90
2019-03-01T04:01:27.252Z,99.90
2019-03-01T04:03:58.526Z,99.90
2019-03-01T04:06:29.489Z,99.90
2019-03-01T04:09:00.565Z,99.90
2019-03-01T04:11:34.210Z,99.90
2019-03-01T04:14:05.231Z,99.90
2019-03-01T04:16:36.146Z,99.90
2019-03-01T04:19:07.302Z,99.90
2019-03-01T04:21:39.281Z,99.90
2019-03-01T04:24:10.552Z,99.90
2019-03-01T04:26:41.700Z,99.90
2019-03-01T04:29:13.052Z,99.90
2019-03-01T04:31:44.324Z,99.90
2019-03-01T04:34:15.636Z,99.90
2019-03-01T04:36:46.618Z,99.90
2019-03-01T04:39:17.572Z,99.90
2019-03-01T04:41:52.173Z,99.90
2019-03-01T04:44:23.591Z,99.90
2019-03-01T04:46:54.940Z,99.90
2019-03-01T04:49:25.872Z,99.90
2019-03-01T04:51:56.774Z,99.90
2019-03-01T04:54:28.038Z,99.90
2019-03-01T04:56:59.170Z,99.90
2019-03-01T04:59:30.319Z,99.90
2019-03-01T05:02:01.424Z,99.90
2019-03-01T05:04:40.738Z,99.90
2019-03-01T05:07:12.382Z,99.90
2019-03-01T05:09:43.410Z,99.90
2019-03-01T05:12:14.556Z,99.90
2019-03-01T05:14:45.922Z,99.90
2019-03-01T05:17:17.255Z,99.90
2019-03-01T05:19:47.916Z,99.90
2019-03-01T05:22:19.039Z,99.90
2019-03-01T05:24:49.888Z,99.90
2019-03-01T05:27:21.049Z,99.90
2019-03-01T05:29:51.716Z,99.90
2019-03-01T05:32:23.274Z,99.90
2019-03-01T05:34:53.863Z,99.90
2019-03-01T05:37:46.147Z,99.90
2019-03-01T05:40:17.420Z,99.90
2019-03-01T05:42:48.774Z,99.90
2019-03-01T05:45:21.647Z,99.90
2019-03-01T05:47:52.320Z,99.90
2019-03-01T05:50:23.409Z,99.90
2019-03-01T05:52:54.424Z,99.90
2019-03-01T05:55:28.829Z,99.90
2019-03-01T05:58:33.738Z,99.90
2019-03-01T06:01:28.875Z,99.90
2019-03-01T06:04:18.867Z,99.90
2019-03-01T06:07:20.817Z,99.90
2019-03-01T06:10:35.069Z,99.90
2019-03-01T06:14:11.333Z,99.90
2019-03-01T06:17:32.075Z,99.90
2019-03-01T06:20:32.904Z,99.90
2019-03-01T06:23:30.087Z,99.90
2019-03-01T06:26:44.231Z,99.90
2019-03-01T06:29:46.370Z,99.90
2019-03-01T06:32:58.549Z,99.90
2019-03-01T06:36:32.598Z,99.90
2019-03-01T06:39:53.274Z,99.90
2019-03-01T06:42:59.859Z,99.90
2019-03-01T06:46:13.721Z,99.90
2019-03-01T06:48:53.063Z,99.90
2019-03-01T06:51:29.122Z,99.90
2019-03-01T06:53:59.785Z,99.90
2019-03-01T06:56:30.997Z,99.90
2019-03-01T06:59:03.969Z,99.90
2019-03-01T07:01:48.088Z,99.90
2019-03-01T07:04:19.832Z,99.90
2019-03-01T07:07:07.158Z,99.90
2019-03-01T07:09:38.385Z,99.90
2019-03-01T07:12:09.342Z,99.90
2019-03-01T07:14:40.328Z,99.90
2019-03-01T07:17:11.703Z,99.90
2019-03-01T07:19:42.726Z,99.90
2019-03-01T07:22:14.060Z,99.90
2019-03-01T07:24:45.369Z,99.90
2019-03-01T07:27:16.367Z,99.90
2019-03-01T07:29:47.751Z,99.90
2019-03-01T07:32:19.702Z,99.90
2019-03-01T07:34:50.434Z,99.90
2019-03-01T07:37:22.002Z,99.90
2019-03-01T07:39:52.741Z,99.90
2019-03-01T07:42:24.223Z,99.90
2019-03-01T07:44:55.384Z,99.90
2019-03-01T07:47:26.651Z,99.90
2019-03-01T07:49:58.717Z,99.90
2019-03-01T07:52:30.037Z,99.70
2019-03-01T07:55:01.365Z,99.90
2019-03-01T07:57:33.625Z,98.60
2019-03-01T08:00:05.291Z,98.20
2019-03-01T08:02:39.766Z,99.30
2019-03-01T08:05:10.732Z,99.20
2019-03-01T08:07:41.747Z,99.40
2019-03-01T08:10:13.197Z,99.90
2019-03-01T08:12:47.806Z,99.90
2019-03-01T08:15:18.936Z,99.90
2019-03-01T08:17:50.438Z,99.70
2019-03-01T08:20:21.729Z,99.30
2019-03-01T08:22:53.076Z,99.30
2019-03-01T08:25:24.732Z,99.40
2019-03-01T08:27:55.797Z,99.20
2019-03-01T08:30:27.241Z,99.30
2019-03-01T08:32:58.323Z,98.90
2019-03-01T08:35:31.971Z,99.20
2019-03-01T08:38:02.509Z,99.80
2019-03-01T08:40:33.611Z,99.60
2019-03-01T08:43:04.596Z,99.90
2019-03-01T08:45:35.927Z,99.70
2019-03-01T08:48:08.821Z,99.90
2019-03-01T08:50:40.970Z,99.90
2019-03-01T08:53:15.136Z,99.90
2019-03-01T08:55:45.121Z,99.90
2019-03-01T08:58:17.002Z,99.90
2019-03-01T09:00:47.977Z,99.90
2019-03-01T09:03:30.475Z,99.90
2019-03-01T09:06:01.484Z,99.90
2019-03-01T09:08:33.112Z,99.90
2019-03-01T09:11:05.500Z,99.90
2019-03-01T09:13:37.243Z,99.90
2019-03-01T09:16:08.866Z,99.90
2019-03-01T09:18:40.080Z,99.90
2019-03-01T09:21:12.967Z,99.90
2019-03-01T09:23:44.061Z,99.90
2019-03-01T09:26:16.637Z,99.90
2019-03-01T09:28:49.367Z,99.90
2019-03-01T09:31:20.911Z,99.90
2019-03-01T09:33:53.711Z,99.90
2019-03-01T09:36:35.088Z,99.90
2019-03-01T09:39:09.913Z,99.90
2019-03-01T09:41:41.612Z,99.90
2019-03-01T09:44:12.882Z,99.90
2019-03-01T09:46:44.293Z,99.90
2019-03-01T09:49:15.477Z,99.90
2019-03-01T09:51:49.920Z,99.90
2019-03-01T09:54:19.862Z,99.90
2019-03-01T09:56:53.014Z,99.90
2019-03-01T09:59:24.646Z,99.90
2019-03-01T10:01:55.332Z,99.90
2019-03-01T10:04:26.592Z,99.90
2019-03-01T10:06:57.560Z,99.90
2019-03-01T10:09:28.504Z,99.90
2019-03-01T10:11:59.815Z,99.90
2019-03-01T10:14:35.846Z,99.90
2019-03-01T10:17:06.876Z,99.90
2019-03-01T10:19:37.952Z,99.90
2019-03-01T10:22:09.336Z,99.90
2019-03-01T10:24:40.755Z,99.90
2019-03-01T10:27:12.994Z,99.90
2019-03-01T10:29:44.093Z,99.90
2019-03-01T10:32:15.212Z,99.90
2019-03-01T10:34:47.481Z,99.90
2019-03-01T10:37:18.518Z,99.90
2019-03-01T10:39:55.330Z,99.90
2019-03-01T10:42:22.112Z,99.90
2019-03-01T10:44:52.995Z,99.90
2019-03-01T10:47:24.349Z,99.90
2019-03-01T10:49:55.311Z,99.90
2019-03-01T10:52:26.113Z,99.90
2019-03-01T10:54:57.329Z,99.90
2019-03-01T10:57:28.515Z,99.90
2019-03-01T10:59:59.713Z,99.90
2019-03-01T11:02:30.495Z,99.90
2019-03-01T11:05:02.912Z,99.90
2019-03-01T11:07:34.079Z,99.90
2019-03-01T11:10:05.724Z,99.90
2019-03-01T11:12:37.089Z,99.90
2019-03-01T11:15:09.493Z,99.90
2019-03-01T11:17:40.642Z,99.90
2019-03-01T11:20:14.184Z,99.90
2019-03-01T11:22:45.611Z,99.90
2019-03-01T11:25:17.742Z,99.90
2019-03-01T11:27:49.079Z,99.90
2019-03-01T11:30:22.351Z,99.90
2019-03-01T11:32:53.833Z,99.90
2019-03-01T11:35:25.085Z,99.90
2019-03-01T11:37:55.823Z,99.90
2019-03-01T11:40:31.832Z,99.90
2019-03-01T11:43:03.153Z,99.90
2019-03-01T11:45:34.597Z,99.90
2019-03-01T11:48:05.970Z,99.90
2019-03-01T11:50:38.064Z,99.90
2019-03-01T11:53:09.233Z,99.90
2019-03-01T11:55:40.512Z,99.90
2019-03-01T11:58:11.637Z,99.90
2019-03-01T12:00:52.132Z,99.90
2019-03-01T12:03:19.014Z,99.90
2019-03-01T12:05:49.737Z,99.90
2019-03-01T12:08:21.102Z,99.90
2019-03-01T12:10:51.926Z,99.90
2019-03-01T12:13:23.206Z,99.90
2019-03-01T12:15:53.912Z,99.90
2019-03-01T12:18:25.196Z,99.90
2019-03-01T12:20:56.513Z,99.90
2019-03-01T12:23:27.757Z,99.90
2019-03-01T12:25:59.357Z,99.90
2019-03-01T12:28:31.587Z,99.90
2019-03-01T12:31:02.846Z,99.90
2019-03-01T12:33:34.166Z,99.90
2019-03-01T12:36:05.490Z,99.90
2019-03-01T12:38:36.561Z,99.90
2019-03-01T12:41:07.819Z,99.90
2019-03-01T12:43:40.334Z,99.90
2019-03-01T12:46:11.399Z,99.90
2019-03-01T12:48:42.561Z,99.90
2019-03-01T12:51:13.963Z,99.90
2019-03-01T12:53:45.383Z,99.90
2019-03-01T12:56:16.609Z,99.90
2019-03-01T12:58:47.562Z,99.90
2019-03-01T13:01:18.760Z,99.90
2019-03-01T13:03:49.476Z,99.90
2019-03-01T13:06:20.540Z,99.90
2019-03-01T13:08:52.334Z,99.90
2019-03-01T13:11:23.516Z,99.90
2019-03-01T13:13:54.266Z,99.90
2019-03-01T13:16:26.739Z,99.90
2019-03-01T13:18:59.590Z,99.90
2019-03-01T13:21:32.629Z,99.90
2019-03-01T13:24:03.631Z,99.90
2019-03-01T13:26:37.714Z,99.90
2019-03-01T13:29:07.968Z,99.90
2019-03-01T13:31:39.246Z,99.90
2019-03-01T13:34:13.614Z,99.90
2019-03-01T13:36:43.685Z,99.90
2019-03-01T13:39:14.720Z,99.90
2019-03-01T13:41:48.018Z,99.90
2019-03-01T13:44:18.356Z,99.90
2019-03-01T13:46:52.791Z,99.90
2019-03-01T13:49:26.807Z,99.90
2019-03-01T13:51:56.495Z,99.90
2019-03-01T13:54:27.577Z,99.90
2019-03-01T13:56:58.583Z,99.90
2019-03-01T13:59:29.619Z,99.90
2019-03-01T14:02:00.684Z,99.90
2019-03-01T14:04:31.707Z,99.90
2019-03-01T14:07:02.707Z,99.90
2019-03-01T14:09:34.539Z,99.90
2019-03-01T14:12:05.924Z,99.90
2019-03-01T14:14:37.120Z,99.90
2019-03-01T14:17:08.453Z,99.90
2019-03-01T14:19:42.216Z,99.90
2019-03-01T14:22:14.021Z,99.90
2019-03-01T14:24:45.109Z,99.90
2019-03-01T14:27:16.407Z,99.90
2019-03-01T14:29:54.058Z,99.90
2019-03-01T14:32:25.233Z,99.90
2019-03-01T14:34:55.859Z,99.90
2019-03-01T14:37:27.043Z,99.90
2019-03-01T14:39:59.031Z,99.90
2019-03-01T14:42:30.182Z,99.90
2019-03-01T14:45:01.608Z,99.90
2019-03-01T14:47:33.698Z,99.90
2019-03-01T14:50:04.831Z,99.90
2019-03-01T14:52:35.860Z,99.90
2019-03-01T14:55:08.147Z,99.90
2019-03-01T14:57:46.181Z,99.90
2019-03-01T15:00:23.303Z,99.90
2019-03-01T15:03:33.483Z,99.90
2019-03-01T15:06:05.041Z,99.90
2019-03-01T15:08:36.217Z,99.90
2019-03-01T15:11:10.715Z,99.90
2019-03-01T15:13:42.299Z,99.90
2019-03-01T15:16:13.972Z,99.90
2019-03-01T15:18:45.371Z,99.90
2019-03-01T15:21:16.771Z,99.90
2019-03-01T15:23:48.555Z,99.90
2019-03-01T15:26:19.632Z,99.90
2019-03-01T15:28:56.000Z,99.90
2019-03-01T15:31:27.133Z,99.90
2019-03-01T15:33:58.040Z,99.90
2019-03-01T15:36:29.384Z,99.90
2019-03-01T15:39:00.409Z,99.90
2019-03-01T15:41:33.072Z,99.90
2019-03-01T15:44:04.429Z,99.90
2019-03-01T15:46:35.637Z,99.90
2019-03-01T15:49:06.800Z,99.90
2019-03-01T15:51:46.303Z,99.90
2019-03-01T15:54:17.609Z,99.90
2019-03-01T15:56:48.464Z,99.90
2019-03-01T15:59:19.752Z,99.90
2019-03-01T16:01:50.417Z,99.90
2019-03-01T16:04:23.403Z,99.90
2019-03-01T16:06:56.463Z,99.90
2019-03-01T16:09:26.765Z,99.90
2019-03-01T16:11:57.855Z,99.90
2019-03-01T16:14:29.711Z,99.90
2019-03-01T16:17:00.848Z,99.90
2019-03-01T16:19:32.096Z,99.90
2019-03-01T16:22:03.203Z,99.90
2019-03-01T16:24:34.609Z,99.90
2019-03-01T16:27:08.585Z,99.90
2019-03-01T16:29:42.093Z,99.90
2019-03-01T16:32:12.113Z,99.90
2019-03-01T16:34:43.276Z,99.90
2019-03-01T16:37:15.671Z,99.90
2019-03-01T16:39:46.948Z,99.90
2019-03-01T16:42:18.893Z,99.90
2019-03-01T16:44:50.051Z,99.90
2019-03-01T16:47:23.223Z,99.90
2019-03-01T16:49:55.522Z,99.90
2019-03-01T16:52:30.215Z,99.90
2019-03-01T16:55:01.599Z,99.90
2019-03-01T16:57:33.032Z,99.90
2019-03-01T17:00:06.433Z,99.90
2019-03-01T17:02:41.995Z,99.90
2019-03-01T17:05:11.974Z,99.90
2019-03-01T17:07:43.144Z,99.90
2019-03-01T17:10:15.712Z,99.90
2019-03-01T17:12:48.889Z,99.90
2019-03-01T17:15:22.267Z,99.90
2019-03-01T17:17:53.722Z,99.90
2019-03-01T17:20:25.206Z,99.90
2019-03-01T17:22:59.529Z,99.90
2019-03-01T17:25:29.104Z,99.90
2019-03-01T17:28:00.305Z,99.90
2019-03-01T17:30:31.904Z,99.90
2019-03-01T17:33:03.078Z,99.90
2019-03-01T17:35:37.678Z,99.90
2019-03-01T17:38:08.501Z,99.90
2019-03-01T17:40:39.951Z,99.90
2019-03-01T17:43:10.974Z,99.90
2019-03-01T17:45:41.928Z,99.90
2019-03-01T17:48:13.034Z,99.90
2019-03-01T17:58:10.991Z,99.90
2019-03-01T18:00:53.145Z,99.90
2019-03-01T18:03:24.979Z,99.90
2019-03-01T18:05:59.521Z,99.90
2019-03-01T18:08:30.679Z,99.90
2019-03-01T18:11:02.042Z,99.90
2019-03-01T18:13:33.472Z,99.90
2019-03-01T18:16:04.545Z,99.90
2019-03-01T18:18:36.124Z,99.90
2019-03-01T18:21:10.188Z,99.90
2019-03-01T18:23:40.342Z,99.90
2019-03-01T18:26:11.607Z,99.90
2019-03-01T18:28:43.203Z,99.90
2019-03-01T18:31:14.935Z,99.90
2019-03-01T18:33:46.052Z,99.90
2019-03-01T18:36:17.176Z,99.90
2019-03-01T18:38:49.376Z,99.90
2019-03-01T18:41:20.342Z,99.90
2019-03-01T18:43:51.143Z,99.90
2019-03-01T18:46:22.471Z,99.90
2019-03-01T18:48:53.346Z,99.90
2019-03-01T18:51:24.300Z,99.90
2019-03-01T18:53:55.342Z,99.90
2019-03-01T18:56:28.621Z,99.90
2019-03-01T18:58:59.170Z,99.90
2019-03-01T19:01:30.443Z,99.90
2019-03-01T19:04:01.776Z,99.90
2019-03-01T19:06:38.153Z,99.90
2019-03-01T19:09:12.604Z,99.90
2019-03-01T19:11:43.659Z,99.90
2019-03-01T19:14:14.870Z,99.90
2019-03-01T19:16:47.210Z,99.90
2019-03-01T19:19:19.614Z,99.90
2019-03-01T19:21:52.743Z,99.90
2019-03-01T19:24:22.990Z,99.90
2019-03-01T19:26:54.508Z,99.90
2019-03-01T19:29:25.802Z,99.90
2019-03-01T19:31:57.259Z,99.90
2019-03-01T19:34:28.250Z,99.90
2019-03-01T19:36:59.862Z,99.90
2019-03-01T19:39:32.602Z,99.90
2019-03-01T19:42:04.037Z,99.90
2019-03-01T19:44:35.399Z,99.90
2019-03-01T19:47:06.915Z,99.90
2019-03-01T19:49:38.599Z,99.90
2019-03-01T19:52:12.163Z,99.90
2019-03-01T19:54:44.621Z,99.90
2019-03-01T19:57:15.876Z,99.90
2019-03-01T19:59:49.623Z,99.90
2019-03-01T20:02:19.662Z,99.90
2019-03-01T20:04:52.589Z,99.90
2019-03-01T20:07:24.221Z,99.90
2019-03-01T20:09:55.041Z,99.90
2019-03-01T20:12:26.480Z,99.90
2019-03-01T20:14:57.598Z,99.90
2019-03-01T20:17:30.380Z,99.90
2019-03-01T20:20:02.085Z,99.90
2019-03-01T20:22:35.838Z,99.90
2019-03-01T20:25:07.757Z,99.90
2019-03-01T20:27:40.267Z,99.90
2019-03-01T20:30:14.449Z,99.90
2019-03-01T20:32:51.014Z,99.90
2019-03-01T20:35:23.076Z,99.90
2019-03-01T20:37:54.367Z,99.90
2019-03-01T20:40:26.577Z,99.90
2019-03-01T20:43:01.251Z,99.90
2019-03-01T20:45:31.436Z,99.90
2019-03-01T20:48:02.686Z,99.90
2019-03-01T20:50:34.097Z,99.90
2019-03-01T20:53:05.762Z,99.90
2019-03-01T20:55:38.395Z,99.90
2019-03-01T20:58:10.369Z,99.90
2019-03-01T21:00:41.462Z,99.90
2019-03-01T21:03:12.981Z,99.90
2019-03-01T21:05:44.281Z,99.90
2019-03-01T21:08:20.367Z,99.90
2019-03-01T21:10:52.219Z,99.90
2019-03-01T21:13:30.218Z,99.90
2019-03-01T21:16:01.753Z,99.90
2019-03-01T21:18:34.094Z,99.90
2019-03-01T21:21:06.027Z,99.90
2019-03-01T21:23:37.185Z,99.90
2019-03-01T21:26:08.138Z,99.90
2019-03-01T21:28:39.474Z,99.90
2019-03-01T21:31:11.034Z,99.90
2019-03-01T21:33:43.347Z,99.90
2019-03-01T21:36:14.658Z,99.90
2019-03-01T21:38:49.234Z,99.90
2019-03-01T21:41:19.321Z,99.90
2019-03-01T21:43:50.223Z,99.90
2019-03-01T21:46:21.890Z,99.90
2019-03-01T21:48:52.565Z,99.90
2019-03-01T21:51:23.658Z,99.90
2019-03-01T21:53:54.907Z,99.90
2019-03-01T21:56:26.227Z,99.90
2019-03-01T21:58:57.690Z,99.90
2019-03-01T22:01:29.490Z,99.90
2019-03-01T22:04:02.479Z,99.90
2019-03-01T22:06:33.660Z,99.90
2019-03-01T22:09:07.863Z,99.90
2019-03-01T22:11:40.045Z,99.90
2019-03-01T22:14:14.140Z,99.90
2019-03-01T22:16:44.666Z,99.90
2019-03-01T22:19:15.885Z,99.90
2019-03-01T22:21:47.220Z,99.90
2019-03-01T22:24:18.562Z,99.90
2019-03-01T22:26:50.343Z,99.90
2019-03-01T22:29:21.529Z,99.90
2019-03-01T22:31:52.380Z,99.90
2019-03-01T22:34:23.429Z,99.90
2019-03-01T22:36:55.176Z,99.90
2019-03-01T22:39:27.435Z,99.90
2019-03-01T22:41:58.305Z,99.90
2019-03-01T22:44:36.353Z,99.90
2019-03-01T22:47:05.958Z,99.90
2019-03-01T22:49:37.725Z,99.90
2019-03-01T22:52:08.842Z,99.90
2019-03-01T22:54:40.063Z,99.90
2019-03-01T22:57:11.350Z,99.90
2019-03-01T22:59:43.661Z,99.90
2019-03-01T23:02:19.986Z,99.90
2019-03-01T23:04:50.615Z,99.90
2019-03-01T23:07:23.544Z,99.90
2019-03-01T23:09:54.695Z,99.90
2019-03-01T23:12:30.139Z,99.90
2019-03-01T23:15:02.914Z,99.90
2019-03-01T23:17:35.704Z,99.90
2019-03-01T23:20:07.771Z,99.90
2019-03-01T23:22:38.957Z,99.90
2019-03-01T23:25:10.791Z,99.90
2019-03-01T23:27:42.843Z,99.90
2019-03-01T23:30:14.292Z,99.90
2019-03-01T23:32:45.356Z,99.90
2019-03-01T23:35:18.146Z,99.90
2019-03-01T23:37:49.887Z,99.90
2019-03-01T23:40:21.338Z,99.90
2019-03-01T23:42:53.453Z,99.90
2019-03-01T23:45:25.319Z,99.90
2019-03-01T23:47:56.148Z,99.90
2019-03-01T23:50:27.294Z,99.90
2019-03-01T23:52:58.916Z,99.90
2019-03-01T23:55:30.850Z,99.90
2019-03-01T23:58:06.064Z,99.90
